Olathe, KS

3:11 AM CST on March 01, 2015 (GMT -0600)
Northgate Estates | Change Station
CLOSE
Current Station
Personal Weather Station
Location: Olathe, KS
Elevation: 970 ft
Nearby Weather Stations
Active Advisory: Winter Weather Advisory Active Notice: Local Storm Report

Elev 970 ft 38.89 °N, 94.82 °W | Updated 2 seconds ago

Overcast
Overcast
23.0 °F
Feels Like 23 °F
N
0.0
Wind Variable Wind from NW
Gusts 3.0 mph

Today
High -- | Low -- °F
--% Chance of Precip.
Yesterday
High -- | Low -- °F
Precip. -- in
6:51 AM 6:11 PM
Waxing Gibbous, 84% visible
Pressure 30.38 in
Visibility 7.0 miles
Clouds Overcast 4200 ft
Windchill 23 °F
Dew Point 20 °F
Humidity 90%
Rainfall 0.00 in
Snow Depth Not available.
UV 0.0 out of 12
Pollen .50 out of 12
Air Quality Not available.
Flu Activity Not available.
METAR KOJC 010853Z AUTO 00000KT 7SM OVC042 M06/M07 A3033 RMK AO2 SLP287 60000 T10561067 58004

More Conditions Fewer Conditions

Pressure 30.38 in
Visibility 7.0 miles
Clouds Overcast 4200 ft
Windchill 23 °F
Dew Point 20 °F
Humidity 90%
Rainfall 0.00 in
Snow Depth Not available.
UV 0.0 out of 12
Pollen .50 out of 12
Air Quality Not available.
Flu Activity Not available.
METAR KOJC 010853Z AUTO 00000KT 7SM OVC042 M06/M07 A3033 RMK AO2 SLP287 60000 T10561067 58004

More Conditions Fewer Conditions

10-Day Weather Forecast

Almanac

Astronomy

Mar. 01, 2015 Rise Set
Actual Time
Civil Twilight
Nautical Twilight
Astronomical Twilight
Moon
Length of Visible Light
Length of Day
Tomorrow will be .
, % of the Moon is Illuminated

Today's Extremes

State Highs State Lows

Community

WunderPhotos

Upload Photos

1,801,350 photos uploaded!

WunderBlogs® & News

Nearby

Air Quality

  Air Quality AQ Index Pollutant
Not available.

Snow Depth

Station Depth Elevation

Earthquake Activity

City Distance Mag. Time & Date
Minimum magnitude displayed is 2.5.

Coastal Water Temperatures

Place Temperature

Nearby Weather Stations

Winter Weather Advisory
Statement as of 9:56 PM CST on February 28, 2015

... Winter Weather Advisory remains in effect until 6 PM CST
Sunday...

A Winter Weather Advisory for snow remains in effect until 6 PM CST
Sunday.

* Timing... a second round of snow has begun to develop across the
region this evening... and will continue through Sunday morning.

* Snow accumulations... an additional one to two inches of snow are
possible through late Sunday morning with this secondary band of
snow. Total accumulations will range from 3 to 6 inches.

* Impacts... travel may be hazardous... .especially on any
untreated roadways while it is snowing.

Precautionary/preparedness actions...

A Winter Weather Advisory means that periods of snow... sleet... or
freezing rain will cause travel difficulties. Be prepared for
slippery roads and limited visibilities... and use caution while
driving.